sensor_id;sensor_type;location;lat;lon;timestamp;P1;durP1;ratioP1;P2;durP2;ratioP2
6109;SDS011;3085;49.444;11.054;2022-12-18T00:00:10;46.43;;;14.63;;
6109;SDS011;3085;49.444;11.054;2022-12-18T00:02:39;36.47;;;15.73;;
6109;SDS011;3085;49.444;11.054;2022-12-18T00:05:06;30.50;;;17.00;;
6109;SDS011;3085;49.444;11.054;2022-12-18T00:07:36;29.83;;;15.77;;
6109;SDS011;3085;49.444;11.054;2022-12-18T00:10:04;42.20;;;19.37;;
6109;SDS011;3085;49.444;11.054;2022-12-18T00:12:32;33.03;;;16.97;;
6109;SDS011;3085;49.444;11.054;2022-12-18T00:14:59;27.87;;;15.27;;
6109;SDS011;3085;49.444;11.054;2022-12-18T00:17:26;30.33;;;20.27;;
6109;SDS011;3085;49.444;11.054;2022-12-18T00:19:57;42.63;;;17.30;;
6109;SDS011;3085;49.444;11.054;2022-12-18T00:22:23;19.33;;;14.53;;
6109;SDS011;3085;49.444;11.054;2022-12-18T00:24:50;22.10;;;13.17;;
6109;SDS011;3085;49.444;11.054;2022-12-18T00:27:17;39.67;;;18.30;;
6109;SDS011;3085;49.444;11.054;2022-12-18T00:29:44;34.00;;;17.50;;
6109;SDS011;3085;49.444;11.054;2022-12-18T00:32:11;37.70;;;15.97;;
6109;SDS011;3085;49.444;11.054;2022-12-18T00:34:38;33.00;;;17.13;;
6109;SDS011;3085;49.444;11.054;2022-12-18T00:37:06;26.70;;;14.70;;
6109;SDS011;3085;49.444;11.054;2022-12-18T00:39:33;37.63;;;14.93;;
6109;SDS011;3085;49.444;11.054;2022-12-18T00:42:00;24.63;;;14.23;;
6109;SDS011;3085;49.444;11.054;2022-12-18T00:44:44;27.77;;;14.83;;
6109;SDS011;3085;49.444;11.054;2022-12-18T00:47:11;22.17;;;14.83;;
6109;SDS011;3085;49.444;11.054;2022-12-18T00:49:38;28.63;;;16.37;;
6109;SDS011;3085;49.444;11.054;2022-12-18T00:52:06;25.53;;;14.83;;
6109;SDS011;3085;49.444;11.054;2022-12-18T00:54:35;30.50;;;13.00;;
6109;SDS011;3085;49.444;11.054;2022-12-18T00:57:02;34.63;;;14.97;;
6109;SDS011;3085;49.444;11.054;2022-12-18T00:59:29;23.23;;;12.30;;
6109;SDS011;3085;49.444;11.054;2022-12-18T01:01:56;21.80;;;14.50;;
6109;SDS011;3085;49.444;11.054;2022-12-18T01:04:23;22.43;;;11.67;;
6109;SDS011;3085;49.444;11.054;2022-12-18T01:06:50;26.03;;;12.37;;
6109;SDS011;3085;49.444;11.054;2022-12-18T01:09:18;36.93;;;14.33;;
6109;SDS011;3085;49.444;11.054;2022-12-18T01:11:45;32.70;;;11.77;;
6109;SDS011;3085;49.444;11.054;2022-12-18T01:14:12;19.97;;;11.37;;
6109;SDS011;3085;49.444;11.054;2022-12-18T01:16:39;23.37;;;13.13;;
6109;SDS011;3085;49.444;11.054;2022-12-18T01:19:06;24.23;;;12.10;;
6109;SDS011;3085;49.444;11.054;2022-12-18T01:21:33;20.93;;;12.10;;
6109;SDS011;3085;49.444;11.054;2022-12-18T01:24:00;16.27;;;9.30;;
6109;SDS011;3085;49.444;11.054;2022-12-18T01:26:28;9.67;;;8.57;;
6109;SDS011;3085;49.444;11.054;2022-12-18T01:28:55;19.13;;;11.40;;
6109;SDS011;3085;49.444;11.054;2022-12-18T01:31:23;10.57;;;7.00;;
6109;SDS011;3085;49.444;11.054;2022-12-18T01:33:51;31.47;;;12.60;;
6109;SDS011;3085;49.444;11.054;2022-12-18T01:36:20;22.13;;;11.20;;
6109;SDS011;3085;49.444;11.054;2022-12-18T01:38:50;19.00;;;9.10;;
6109;SDS011;3085;49.444;11.054;2022-12-18T01:41:19;16.97;;;10.43;;
6109;SDS011;3085;49.444;11.054;2022-12-18T01:43:50;11.93;;;7.80;;
6109;SDS011;3085;49.444;11.054;2022-12-18T01:46:20;27.13;;;10.50;;
6109;SDS011;3085;49.444;11.054;2022-12-18T01:48:50;37.00;;;13.63;;
6109;SDS011;3085;49.444;11.054;2022-12-18T01:51:20;10.87;;;7.50;;
6109;SDS011;3085;49.444;11.054;2022-12-18T01:53:48;23.27;;;11.87;;
6109;SDS011;3085;49.444;11.054;2022-12-18T01:56:17;31.07;;;13.97;;
6109;SDS011;3085;49.444;11.054;2022-12-18T01:58:48;19.43;;;8.33;;
6109;SDS011;3085;49.444;11.054;2022-12-18T02:01:21;21.77;;;9.50;;
6109;SDS011;3085;49.444;11.054;2022-12-18T02:03:49;17.60;;;8.70;;
6109;SDS011;3085;49.444;11.054;2022-12-18T02:06:18;27.93;;;10.37;;
6109;SDS011;3085;49.444;11.054;2022-12-18T02:08:57;27.63;;;11.07;;
6109;SDS011;3085;49.444;11.054;2022-12-18T02:11:31;23.47;;;10.90;;
6109;SDS011;3085;49.444;11.054;2022-12-18T02:14:09;18.40;;;7.53;;
6109;SDS011;3085;49.444;11.054;2022-12-18T02:16:44;15.97;;;10.50;;
6109;SDS011;3085;49.444;11.054;2022-12-18T02:19:27;17.43;;;9.40;;
6109;SDS011;3085;49.444;11.054;2022-12-18T02:22:20;18.90;;;10.07;;
6109;SDS011;3085;49.444;11.054;2022-12-18T02:24:56;35.20;;;13.37;;
6109;SDS011;3085;49.444;11.054;2022-12-18T02:27:32;27.37;;;11.50;;
6109;SDS011;3085;49.444;11.054;2022-12-18T02:30:01;18.00;;;8.53;;
6109;SDS011;3085;49.444;11.054;2022-12-18T02:32:30;14.10;;;10.37;;
6109;SDS011;3085;49.444;11.054;2022-12-18T02:35:00;19.93;;;10.77;;
6109;SDS011;3085;49.444;11.054;2022-12-18T02:37:31;19.57;;;11.47;;
6109;SDS011;3085;49.444;11.054;2022-12-18T02:39:59;16.97;;;9.67;;
6109;SDS011;3085;49.444;11.054;2022-12-18T02:42:28;20.70;;;12.37;;
6109;SDS011;3085;49.444;11.054;2022-12-18T02:44:57;15.73;;;9.27;;
6109;SDS011;3085;49.444;11.054;2022-12-18T02:47:24;27.83;;;14.80;;
6109;SDS011;3085;49.444;11.054;2022-12-18T02:49:58;26.90;;;9.40;;
6109;SDS011;3085;49.444;11.054;2022-12-18T02:52:31;13.63;;;8.30;;
6109;SDS011;3085;49.444;11.054;2022-12-18T02:55:10;12.00;;;8.60;;
6109;SDS011;3085;49.444;11.054;2022-12-18T02:57:45;16.30;;;9.23;;
6109;SDS011;3085;49.444;11.054;2022-12-18T03:00:21;14.77;;;8.93;;
6109;SDS011;3085;49.444;11.054;2022-12-18T03:02:53;16.87;;;7.93;;
6109;SDS011;3085;49.444;11.054;2022-12-18T03:05:24;16.50;;;9.40;;
6109;SDS011;3085;49.444;11.054;2022-12-18T03:07:58;17.50;;;8.53;;
6109;SDS011;3085;49.444;11.054;2022-12-18T03:10:30;25.57;;;7.73;;
6109;SDS011;3085;49.444;11.054;2022-12-18T03:13:02;28.43;;;11.33;;
6109;SDS011;3085;49.444;11.054;2022-12-18T03:15:34;13.47;;;9.20;;
6109;SDS011;3085;49.444;11.054;2022-12-18T03:18:04;21.43;;;11.73;;
6109;SDS011;3085;49.444;11.054;2022-12-18T03:20:34;10.70;;;8.83;;
6109;SDS011;3085;49.444;11.054;2022-12-18T03:23:04;38.83;;;12.17;;
6109;SDS011;3085;49.444;11.054;2022-12-18T03:25:35;41.33;;;11.63;;
6109;SDS011;3085;49.444;11.054;2022-12-18T03:28:05;31.70;;;11.30;;
6109;SDS011;3085;49.444;11.054;2022-12-18T03:30:35;25.47;;;9.33;;
6109;SDS011;3085;49.444;11.054;2022-12-18T03:33:07;19.37;;;9.27;;
6109;SDS011;3085;49.444;11.054;2022-12-18T03:35:37;23.20;;;10.37;;
6109;SDS011;3085;49.444;11.054;2022-12-18T03:38:07;17.03;;;8.23;;
6109;SDS011;3085;49.444;11.054;2022-12-18T03:40:36;29.00;;;11.07;;
6109;SDS011;3085;49.444;11.054;2022-12-18T03:43:11;26.77;;;9.40;;
6109;SDS011;3085;49.444;11.054;2022-12-18T03:45:50;19.87;;;10.37;;
6109;SDS011;3085;49.444;11.054;2022-12-18T03:48:21;38.70;;;13.13;;
6109;SDS011;3085;49.444;11.054;2022-12-18T03:50:56;18.20;;;8.40;;
6109;SDS011;3085;49.444;11.054;2022-12-18T03:53:25;17.80;;;12.10;;
6109;SDS011;3085;49.444;11.054;2022-12-18T03:56:00;10.20;;;6.53;;
6109;SDS011;3085;49.444;11.054;2022-12-18T03:58:30;14.57;;;8.87;;
6109;SDS011;3085;49.444;11.054;2022-12-18T04:01:01;13.67;;;6.80;;
6109;SDS011;3085;49.444;11.054;2022-12-18T04:03:31;15.70;;;7.90;;
6109;SDS011;3085;49.444;11.054;2022-12-18T04:06:00;25.20;;;11.07;;
6109;SDS011;3085;49.444;11.054;2022-12-18T04:08:28;21.13;;;9.80;;
6109;SDS011;3085;49.444;11.054;2022-12-18T04:10:56;17.03;;;7.63;;
6109;SDS011;3085;49.444;11.054;2022-12-18T04:13:23;15.67;;;8.10;;
6109;SDS011;3085;49.444;11.054;2022-12-18T04:15:50;15.10;;;8.03;;
6109;SDS011;3085;49.444;11.054;2022-12-18T04:18:18;9.13;;;8.23;;
6109;SDS011;3085;49.444;11.054;2022-12-18T04:20:45;10.23;;;6.57;;
6109;SDS011;3085;49.444;11.054;2022-12-18T04:23:12;16.50;;;7.30;;
6109;SDS011;3085;49.444;11.054;2022-12-18T04:25:39;15.53;;;9.07;;
6109;SDS011;3085;49.444;11.054;2022-12-18T04:28:06;19.00;;;9.27;;
6109;SDS011;3085;49.444;11.054;2022-12-18T04:30:33;12.47;;;8.27;;
6109;SDS011;3085;49.444;11.054;2022-12-18T04:33:00;22.87;;;9.53;;
6109;SDS011;3085;49.444;11.054;2022-12-18T04:35:28;20.37;;;8.50;;
6109;SDS011;3085;49.444;11.054;2022-12-18T04:37:55;13.43;;;7.40;;
6109;SDS011;3085;49.444;11.054;2022-12-18T04:40:21;24.30;;;10.60;;
6109;SDS011;3085;49.444;11.054;2022-12-18T04:42:48;15.33;;;7.40;;
6109;SDS011;3085;49.444;11.054;2022-12-18T04:45:15;27.20;;;9.70;;
6109;SDS011;3085;49.444;11.054;2022-12-18T04:47:42;14.60;;;8.70;;
6109;SDS011;3085;49.444;11.054;2022-12-18T04:50:09;12.20;;;7.43;;
6109;SDS011;3085;49.444;11.054;2022-12-18T04:52:37;17.87;;;9.07;;
6109;SDS011;3085;49.444;11.054;2022-12-18T04:55:04;22.57;;;9.20;;
6109;SDS011;3085;49.444;11.054;2022-12-18T04:57:31;38.23;;;11.53;;
6109;SDS011;3085;49.444;11.054;2022-12-18T04:59:58;15.00;;;7.80;;
6109;SDS011;3085;49.444;11.054;2022-12-18T05:02:25;15.47;;;6.83;;
6109;SDS011;3085;49.444;11.054;2022-12-18T05:04:52;20.00;;;9.60;;
6109;SDS011;3085;49.444;11.054;2022-12-18T05:07:19;24.37;;;11.50;;
6109;SDS011;3085;49.444;11.054;2022-12-18T05:09:47;23.57;;;10.53;;
6109;SDS011;3085;49.444;11.054;2022-12-18T05:12:13;21.80;;;10.63;;
6109;SDS011;3085;49.444;11.054;2022-12-18T05:14:40;21.70;;;10.00;;
6109;SDS011;3085;49.444;11.054;2022-12-18T05:17:07;20.07;;;8.73;;
6109;SDS011;3085;49.444;11.054;2022-12-18T05:19:34;12.97;;;7.60;;
6109;SDS011;3085;49.444;11.054;2022-12-18T05:22:01;18.37;;;9.30;;
6109;SDS011;3085;49.444;11.054;2022-12-18T05:24:28;15.30;;;7.87;;
6109;SDS011;3085;49.444;11.054;2022-12-18T05:26:56;14.37;;;7.43;;
6109;SDS011;3085;49.444;11.054;2022-12-18T05:29:23;11.00;;;7.07;;
6109;SDS011;3085;49.444;11.054;2022-12-18T05:31:50;22.70;;;8.90;;
6109;SDS011;3085;49.444;11.054;2022-12-18T05:34:16;17.93;;;10.10;;
6109;SDS011;3085;49.444;11.054;2022-12-18T05:36:43;26.00;;;8.60;;
6109;SDS011;3085;49.444;11.054;2022-12-18T05:39:10;15.33;;;7.93;;
6109;SDS011;3085;49.444;11.054;2022-12-18T05:41:37;16.43;;;7.60;;
6109;SDS011;3085;49.444;11.054;2022-12-18T05:44:05;15.70;;;7.20;;
6109;SDS011;3085;49.444;11.054;2022-12-18T05:46:32;25.53;;;8.40;;
6109;SDS011;3085;49.444;11.054;2022-12-18T05:48:59;15.20;;;8.57;;
6109;SDS011;3085;49.444;11.054;2022-12-18T05:51:26;18.03;;;9.40;;
6109;SDS011;3085;49.444;11.054;2022-12-18T05:53:53;42.37;;;9.27;;
6109;SDS011;3085;49.444;11.054;2022-12-18T05:56:20;15.00;;;8.77;;
6109;SDS011;3085;49.444;11.054;2022-12-18T05:58:50;21.57;;;8.10;;
6109;SDS011;3085;49.444;11.054;2022-12-18T06:01:20;20.63;;;9.30;;
6109;SDS011;3085;49.444;11.054;2022-12-18T06:03:48;21.20;;;7.90;;
6109;SDS011;3085;49.444;11.054;2022-12-18T06:06:16;17.57;;;7.53;;
6109;SDS011;3085;49.444;11.054;2022-12-18T06:08:44;13.77;;;6.00;;
6109;SDS011;3085;49.444;11.054;2022-12-18T06:11:11;16.80;;;8.63;;
6109;SDS011;3085;49.444;11.054;2022-12-18T06:13:38;24.23;;;10.77;;
6109;SDS011;3085;49.444;11.054;2022-12-18T06:16:05;13.93;;;8.80;;
6109;SDS011;3085;49.444;11.054;2022-12-18T06:18:34;17.17;;;5.80;;
6109;SDS011;3085;49.444;11.054;2022-12-18T06:21:01;11.50;;;6.27;;
6109;SDS011;3085;49.444;11.054;2022-12-18T06:23:28;21.67;;;10.13;;
6109;SDS011;3085;49.444;11.054;2022-12-18T06:25:54;17.07;;;7.60;;
6109;SDS011;3085;49.444;11.054;2022-12-18T06:28:21;20.17;;;7.50;;
6109;SDS011;3085;49.444;11.054;2022-12-18T06:30:48;18.83;;;8.03;;
6109;SDS011;3085;49.444;11.054;2022-12-18T06:33:16;23.70;;;11.17;;
6109;SDS011;3085;49.444;11.054;2022-12-18T06:35:44;24.07;;;9.67;;
6109;SDS011;3085;49.444;11.054;2022-12-18T06:38:11;8.90;;;6.63;;
6109;SDS011;3085;49.444;11.054;2022-12-18T06:40:39;25.30;;;10.20;;
6109;SDS011;3085;49.444;11.054;2022-12-18T06:43:06;22.77;;;9.10;;
6109;SDS011;3085;49.444;11.054;2022-12-18T06:45:32;16.67;;;8.03;;
6109;SDS011;3085;49.444;11.054;2022-12-18T06:48:00;21.47;;;8.60;;
6109;SDS011;3085;49.444;11.054;2022-12-18T06:50:26;14.60;;;9.07;;
6109;SDS011;3085;49.444;11.054;2022-12-18T06:52:55;25.20;;;7.93;;
6109;SDS011;3085;49.444;11.054;2022-12-18T06:55:21;12.43;;;6.80;;
6109;SDS011;3085;49.444;11.054;2022-12-18T06:57:48;18.83;;;6.90;;
6109;SDS011;3085;49.444;11.054;2022-12-18T07:00:15;29.37;;;9.60;;
6109;SDS011;3085;49.444;11.054;2022-12-18T07:02:43;12.47;;;7.97;;
6109;SDS011;3085;49.444;11.054;2022-12-18T07:05:09;19.30;;;9.17;;
6109;SDS011;3085;49.444;11.054;2022-12-18T07:07:36;22.83;;;8.57;;
6109;SDS011;3085;49.444;11.054;2022-12-18T07:10:05;14.23;;;7.10;;
6109;SDS011;3085;49.444;11.054;2022-12-18T07:12:32;28.10;;;9.40;;
6109;SDS011;3085;49.444;11.054;2022-12-18T07:14:59;19.93;;;8.60;;
6109;SDS011;3085;49.444;11.054;2022-12-18T07:17:26;15.17;;;8.97;;
6109;SDS011;3085;49.444;11.054;2022-12-18T07:19:53;20.30;;;10.50;;
6109;SDS011;3085;49.444;11.054;2022-12-18T07:22:20;12.97;;;6.10;;
6109;SDS011;3085;49.444;11.054;2022-12-18T07:24:49;52.70;;;10.57;;
6109;SDS011;3085;49.444;11.054;2022-12-18T07:27:18;22.33;;;9.10;;
6109;SDS011;3085;49.444;11.054;2022-12-18T07:29:45;19.60;;;8.07;;
6109;SDS011;3085;49.444;11.054;2022-12-18T07:32:11;17.27;;;7.60;;
6109;SDS011;3085;49.444;11.054;2022-12-18T07:34:38;17.87;;;8.37;;
6109;SDS011;3085;49.444;11.054;2022-12-18T07:37:05;14.13;;;6.67;;
6109;SDS011;3085;49.444;11.054;2022-12-18T07:39:32;26.60;;;9.30;;
6109;SDS011;3085;49.444;11.054;2022-12-18T07:41:59;15.70;;;9.20;;
6109;SDS011;3085;49.444;11.054;2022-12-18T07:44:44;18.60;;;8.57;;
6109;SDS011;3085;49.444;11.054;2022-12-18T07:47:11;35.50;;;9.87;;
6109;SDS011;3085;49.444;11.054;2022-12-18T07:49:41;25.63;;;7.03;;
6109;SDS011;3085;49.444;11.054;2022-12-18T07:52:08;17.67;;;8.20;;
6109;SDS011;3085;49.444;11.054;2022-12-18T07:54:37;14.37;;;7.97;;
6109;SDS011;3085;49.444;11.054;2022-12-18T07:57:04;13.83;;;7.53;;
6109;SDS011;3085;49.444;11.054;2022-12-18T07:59:31;12.33;;;7.00;;
6109;SDS011;3085;49.444;11.054;2022-12-18T08:01:59;17.10;;;7.00;;
6109;SDS011;3085;49.444;11.054;2022-12-18T08:04:26;23.83;;;9.87;;
6109;SDS011;3085;49.444;11.054;2022-12-18T08:06:53;23.87;;;9.53;;
6109;SDS011;3085;49.444;11.054;2022-12-18T08:09:20;29.33;;;9.70;;
6109;SDS011;3085;49.444;11.054;2022-12-18T08:11:47;16.07;;;8.10;;
6109;SDS011;3085;49.444;11.054;2022-12-18T08:14:14;16.87;;;6.07;;
6109;SDS011;3085;49.444;11.054;2022-12-18T08:16:41;20.87;;;9.20;;
6109;SDS011;3085;49.444;11.054;2022-12-18T08:19:09;27.83;;;9.50;;
6109;SDS011;3085;49.444;11.054;2022-12-18T08:21:36;15.97;;;7.77;;
6109;SDS011;3085;49.444;11.054;2022-12-18T08:24:03;26.70;;;9.37;;
6109;SDS011;3085;49.444;11.054;2022-12-18T08:26:34;20.17;;;7.87;;
6109;SDS011;3085;49.444;11.054;2022-12-18T08:29:01;21.47;;;8.70;;
6109;SDS011;3085;49.444;11.054;2022-12-18T08:31:28;14.90;;;8.10;;
6109;SDS011;3085;49.444;11.054;2022-12-18T08:33:56;18.87;;;6.77;;
6109;SDS011;3085;49.444;11.054;2022-12-18T08:36:25;27.60;;;10.53;;
6109;SDS011;3085;49.444;11.054;2022-12-18T08:38:51;25.97;;;9.90;;
6109;SDS011;3085;49.444;11.054;2022-12-18T08:41:19;19.63;;;8.80;;
6109;SDS011;3085;49.444;11.054;2022-12-18T08:43:46;24.20;;;8.57;;
6109;SDS011;3085;49.444;11.054;2022-12-18T08:46:34;19.20;;;7.87;;
6109;SDS011;3085;49.444;11.054;2022-12-18T08:49:02;22.97;;;8.80;;
6109;SDS011;3085;49.444;11.054;2022-12-18T08:51:31;14.37;;;6.63;;
6109;SDS011;3085;49.444;11.054;2022-12-18T08:53:58;18.47;;;7.50;;
6109;SDS011;3085;49.444;11.054;2022-12-18T08:56:24;15.20;;;8.00;;
6109;SDS011;3085;49.444;11.054;2022-12-18T08:58:52;16.73;;;8.93;;
6109;SDS011;3085;49.444;11.054;2022-12-18T09:01:19;11.37;;;6.00;;
6109;SDS011;3085;49.444;11.054;2022-12-18T09:03:46;13.30;;;7.00;;
6109;SDS011;3085;49.444;11.054;2022-12-18T09:06:14;18.50;;;8.80;;
6109;SDS011;3085;49.444;11.054;2022-12-18T09:08:43;22.73;;;6.97;;
6109;SDS011;3085;49.444;11.054;2022-12-18T09:11:12;13.70;;;7.70;;
6109;SDS011;3085;49.444;11.054;2022-12-18T09:13:40;23.53;;;7.93;;
6109;SDS011;3085;49.444;11.054;2022-12-18T09:16:07;24.90;;;8.67;;
6109;SDS011;3085;49.444;11.054;2022-12-18T09:18:34;21.80;;;9.90;;
6109;SDS011;3085;49.444;11.054;2022-12-18T09:21:06;25.47;;;9.20;;
6109;SDS011;3085;49.444;11.054;2022-12-18T09:23:34;20.37;;;7.03;;
6109;SDS011;3085;49.444;11.054;2022-12-18T09:26:03;25.57;;;7.10;;
6109;SDS011;3085;49.444;11.054;2022-12-18T09:28:30;17.37;;;7.10;;
6109;SDS011;3085;49.444;11.054;2022-12-18T09:30:57;22.20;;;8.57;;
6109;SDS011;3085;49.444;11.054;2022-12-18T09:33:23;12.73;;;6.80;;
6109;SDS011;3085;49.444;11.054;2022-12-18T09:35:50;20.30;;;8.73;;
6109;SDS011;3085;49.444;11.054;2022-12-18T09:38:18;19.67;;;8.33;;
6109;SDS011;3085;49.444;11.054;2022-12-18T09:40:49;14.83;;;6.23;;
6109;SDS011;3085;49.444;11.054;2022-12-18T09:43:21;15.90;;;7.13;;
6109;SDS011;3085;49.444;11.054;2022-12-18T09:45:53;12.40;;;6.17;;
6109;SDS011;3085;49.444;11.054;2022-12-18T09:48:26;13.57;;;6.73;;
6109;SDS011;3085;49.444;11.054;2022-12-18T09:50:57;18.67;;;6.00;;
6109;SDS011;3085;49.444;11.054;2022-12-18T09:53:30;21.60;;;8.30;;
6109;SDS011;3085;49.444;11.054;2022-12-18T09:56:01;19.27;;;8.17;;
6109;SDS011;3085;49.444;11.054;2022-12-18T09:58:33;16.40;;;8.03;;
6109;SDS011;3085;49.444;11.054;2022-12-18T10:01:08;16.83;;;7.83;;
6109;SDS011;3085;49.444;11.054;2022-12-18T10:03:37;17.60;;;6.27;;
6109;SDS011;3085;49.444;11.054;2022-12-18T10:06:05;26.17;;;9.30;;
6109;SDS011;3085;49.444;11.054;2022-12-18T10:08:40;16.13;;;6.13;;
6109;SDS011;3085;49.444;11.054;2022-12-18T10:11:19;13.57;;;8.00;;
6109;SDS011;3085;49.444;11.054;2022-12-18T10:14:00;19.37;;;7.93;;
6109;SDS011;3085;49.444;11.054;2022-12-18T10:16:34;17.97;;;9.00;;
6109;SDS011;3085;49.444;11.054;2022-12-18T10:19:13;21.97;;;8.40;;
6109;SDS011;3085;49.444;11.054;2022-12-18T10:21:49;40.97;;;9.37;;
6109;SDS011;3085;49.444;11.054;2022-12-18T10:24:25;14.20;;;6.67;;
6109;SDS011;3085;49.444;11.054;2022-12-18T10:26:58;12.47;;;6.40;;
6109;SDS011;3085;49.444;11.054;2022-12-18T10:29:36;12.23;;;6.67;;
6109;SDS011;3085;49.444;11.054;2022-12-18T10:32:04;13.03;;;6.97;;
6109;SDS011;3085;49.444;11.054;2022-12-18T10:34:31;26.27;;;8.70;;
6109;SDS011;3085;49.444;11.054;2022-12-18T10:36:57;19.40;;;7.00;;
6109;SDS011;3085;49.444;11.054;2022-12-18T10:39:27;21.50;;;7.40;;
6109;SDS011;3085;49.444;11.054;2022-12-18T10:41:59;18.70;;;7.20;;
6109;SDS011;3085;49.444;11.054;2022-12-18T10:44:37;15.37;;;5.83;;
6109;SDS011;3085;49.444;11.054;2022-12-18T10:47:05;27.87;;;8.13;;
6109;SDS011;3085;49.444;11.054;2022-12-18T10:49:41;21.40;;;6.67;;
6109;SDS011;3085;49.444;11.054;2022-12-18T10:52:14;21.27;;;9.20;;
6109;SDS011;3085;49.444;11.054;2022-12-18T10:54:47;26.80;;;8.73;;
6109;SDS011;3085;49.444;11.054;2022-12-18T10:57:16;17.27;;;7.77;;
6109;SDS011;3085;49.444;11.054;2022-12-18T10:59:57;19.87;;;6.00;;
6109;SDS011;3085;49.444;11.054;2022-12-18T11:02:26;10.70;;;5.53;;
6109;SDS011;3085;49.444;11.054;2022-12-18T11:04:59;17.40;;;6.80;;
6109;SDS011;3085;49.444;11.054;2022-12-18T11:07:26;17.20;;;6.57;;
6109;SDS011;3085;49.444;11.054;2022-12-18T11:10:15;21.87;;;7.43;;
6109;SDS011;3085;49.444;11.054;2022-12-18T11:12:43;20.17;;;8.50;;
6109;SDS011;3085;49.444;11.054;2022-12-18T11:15:15;21.87;;;6.63;;
6109;SDS011;3085;49.444;11.054;2022-12-18T11:17:44;16.90;;;6.83;;
6109;SDS011;3085;49.444;11.054;2022-12-18T11:20:23;20.50;;;8.43;;
6109;SDS011;3085;49.444;11.054;2022-12-18T11:22:58;12.00;;;6.50;;
6109;SDS011;3085;49.444;11.054;2022-12-18T11:25:28;25.77;;;8.27;;
6109;SDS011;3085;49.444;11.054;2022-12-18T11:27:56;38.87;;;11.43;;
6109;SDS011;3085;49.444;11.054;2022-12-18T11:30:26;24.30;;;8.57;;
6109;SDS011;3085;49.444;11.054;2022-12-18T11:32:59;14.27;;;6.20;;
6109;SDS011;3085;49.444;11.054;2022-12-18T11:35:35;21.10;;;7.80;;
6109;SDS011;3085;49.444;11.054;2022-12-18T11:38:12;24.20;;;6.97;;
6109;SDS011;3085;49.444;11.054;2022-12-18T11:40:45;21.87;;;7.27;;
6109;SDS011;3085;49.444;11.054;2022-12-18T11:43:18;13.63;;;6.53;;
6109;SDS011;3085;49.444;11.054;2022-12-18T11:45:51;21.43;;;7.17;;
6109;SDS011;3085;49.444;11.054;2022-12-18T11:48:21;17.73;;;8.13;;
6109;SDS011;3085;49.444;11.054;2022-12-18T11:50:55;21.97;;;8.20;;
6109;SDS011;3085;49.444;11.054;2022-12-18T11:53:26;18.20;;;6.47;;
6109;SDS011;3085;49.444;11.054;2022-12-18T11:56:00;21.33;;;9.57;;
6109;SDS011;3085;49.444;11.054;2022-12-18T11:58:40;20.97;;;7.47;;
6109;SDS011;3085;49.444;11.054;2022-12-18T12:01:18;14.87;;;8.80;;
6109;SDS011;3085;49.444;11.054;2022-12-18T12:04:15;20.03;;;8.70;;
6109;SDS011;3085;49.444;11.054;2022-12-18T12:06:58;19.60;;;8.60;;
6109;SDS011;3085;49.444;11.054;2022-12-18T12:09:34;29.67;;;8.10;;
6109;SDS011;3085;49.444;11.054;2022-12-18T12:12:10;33.43;;;9.03;;
6109;SDS011;3085;49.444;11.054;2022-12-18T12:14:52;15.00;;;8.83;;
6109;SDS011;3085;49.444;11.054;2022-12-18T12:17:31;13.33;;;6.27;;
6109;SDS011;3085;49.444;11.054;2022-12-18T12:20:06;21.00;;;7.23;;
6109;SDS011;3085;49.444;11.054;2022-12-18T12:22:42;17.87;;;6.60;;
6109;SDS011;3085;49.444;11.054;2022-12-18T12:25:23;19.30;;;7.77;;
6109;SDS011;3085;49.444;11.054;2022-12-18T12:27:59;26.60;;;7.77;;
6109;SDS011;3085;49.444;11.054;2022-12-18T12:30:39;21.30;;;7.47;;
6109;SDS011;3085;49.444;11.054;2022-12-18T12:33:21;24.97;;;8.50;;
6109;SDS011;3085;49.444;11.054;2022-12-18T12:35:59;18.17;;;7.77;;
6109;SDS011;3085;49.444;11.054;2022-12-18T12:38:35;21.47;;;7.80;;
6109;SDS011;3085;49.444;11.054;2022-12-18T12:41:08;15.07;;;6.77;;
6109;SDS011;3085;49.444;11.054;2022-12-18T12:43:59;20.73;;;7.33;;
6109;SDS011;3085;49.444;11.054;2022-12-18T12:46:29;16.80;;;7.33;;
6109;SDS011;3085;49.444;11.054;2022-12-18T12:49:02;14.07;;;8.10;;
6109;SDS011;3085;49.444;11.054;2022-12-18T12:51:32;20.83;;;8.03;;
6109;SDS011;3085;49.444;11.054;2022-12-18T12:54:02;33.30;;;10.23;;
6109;SDS011;3085;49.444;11.054;2022-12-18T12:56:36;14.70;;;6.80;;
6109;SDS011;3085;49.444;11.054;2022-12-18T12:59:10;15.83;;;7.20;;
6109;SDS011;3085;49.444;11.054;2022-12-18T13:01:40;18.70;;;7.17;;
6109;SDS011;3085;49.444;11.054;2022-12-18T13:04:20;27.30;;;8.70;;
6109;SDS011;3085;49.444;11.054;2022-12-18T13:06:54;14.30;;;6.60;;
6109;SDS011;3085;49.444;11.054;2022-12-18T13:09:29;17.43;;;7.07;;
6109;SDS011;3085;49.444;11.054;2022-12-18T13:12:00;22.43;;;9.00;;
6109;SDS011;3085;49.444;11.054;2022-12-18T13:14:46;19.50;;;7.63;;
6109;SDS011;3085;49.444;11.054;2022-12-18T13:17:14;18.80;;;7.97;;
6109;SDS011;3085;49.444;11.054;2022-12-18T13:20:10;13.40;;;6.90;;
6109;SDS011;3085;49.444;11.054;2022-12-18T13:22:39;20.10;;;9.40;;
6109;SDS011;3085;49.444;11.054;2022-12-18T13:28:02;11.67;;;6.87;;
6109;SDS011;3085;49.444;11.054;2022-12-18T13:36:23;14.17;;;5.63;;
6109;SDS011;3085;49.444;11.054;2022-12-18T13:39:09;29.67;;;7.80;;
6109;SDS011;3085;49.444;11.054;2022-12-18T13:41:47;13.53;;;6.90;;
6109;SDS011;3085;49.444;11.054;2022-12-18T13:44:20;19.83;;;8.83;;
6109;SDS011;3085;49.444;11.054;2022-12-18T13:46:52;19.30;;;7.67;;
6109;SDS011;3085;49.444;11.054;2022-12-18T13:49:20;34.37;;;8.40;;
6109;SDS011;3085;49.444;11.054;2022-12-18T13:51:52;23.40;;;10.13;;
6109;SDS011;3085;49.444;11.054;2022-12-18T13:54:24;16.87;;;6.93;;
6109;SDS011;3085;49.444;11.054;2022-12-18T13:56:56;15.10;;;6.70;;
6109;SDS011;3085;49.444;11.054;2022-12-18T13:59:23;15.47;;;6.63;;
6109;SDS011;3085;49.444;11.054;2022-12-18T14:01:52;19.90;;;7.97;;
6109;SDS011;3085;49.444;11.054;2022-12-18T14:04:22;11.83;;;6.27;;
6109;SDS011;3085;49.444;11.054;2022-12-18T14:06:53;27.03;;;8.80;;
6109;SDS011;3085;49.444;11.054;2022-12-18T14:09:24;17.30;;;7.03;;
6109;SDS011;3085;49.444;11.054;2022-12-18T14:11:53;19.63;;;8.57;;
6109;SDS011;3085;49.444;11.054;2022-12-18T14:14:42;20.13;;;7.10;;
6109;SDS011;3085;49.444;11.054;2022-12-18T14:17:12;19.30;;;6.93;;
6109;SDS011;3085;49.444;11.054;2022-12-18T14:19:41;20.80;;;8.53;;
6109;SDS011;3085;49.444;11.054;2022-12-18T14:22:17;20.23;;;9.07;;
6109;SDS011;3085;49.444;11.054;2022-12-18T14:24:46;18.93;;;8.63;;
6109;SDS011;3085;49.444;11.054;2022-12-18T14:27:20;21.40;;;6.63;;
6109;SDS011;3085;49.444;11.054;2022-12-18T14:29:49;17.57;;;8.13;;
6109;SDS011;3085;49.444;11.054;2022-12-18T14:32:17;26.83;;;6.30;;
6109;SDS011;3085;49.444;11.054;2022-12-18T14:34:45;16.30;;;7.47;;
6109;SDS011;3085;49.444;11.054;2022-12-18T14:37:13;21.77;;;8.57;;
6109;SDS011;3085;49.444;11.054;2022-12-18T14:39:53;22.87;;;11.47;;
6109;SDS011;3085;49.444;11.054;2022-12-18T14:42:24;21.47;;;7.73;;
6109;SDS011;3085;49.444;11.054;2022-12-18T14:47:54;11.97;;;6.67;;
6109;SDS011;3085;49.444;11.054;2022-12-18T14:50:20;19.50;;;7.80;;
6109;SDS011;3085;49.444;11.054;2022-12-18T14:52:47;19.97;;;8.40;;
6109;SDS011;3085;49.444;11.054;2022-12-18T14:55:17;14.43;;;6.70;;
6109;SDS011;3085;49.444;11.054;2022-12-18T14:57:45;14.67;;;6.47;;
6109;SDS011;3085;49.444;11.054;2022-12-18T15:00:17;22.17;;;9.47;;
6109;SDS011;3085;49.444;11.054;2022-12-18T15:02:46;17.97;;;8.40;;
6109;SDS011;3085;49.444;11.054;2022-12-18T15:05:17;19.60;;;7.03;;
6109;SDS011;3085;49.444;11.054;2022-12-18T15:07:47;17.60;;;7.13;;
6109;SDS011;3085;49.444;11.054;2022-12-18T15:10:29;13.97;;;8.80;;
6109;SDS011;3085;49.444;11.054;2022-12-18T15:13:08;16.97;;;7.90;;
6109;SDS011;3085;49.444;11.054;2022-12-18T15:15:52;16.83;;;7.93;;